Time;durP1;ratioP1;P1;durP2;ratioP2;P2;SDS_P1;SDS_P2;PMS_P1;PMS_P2;Temp;Humidity;BMP_temperature;BMP_pressure;BME280_temperature;BME280_humidity;BME280_pressure;Samples;Min_cycle;Max_cycle;Signal;HPM_P1;HPM_P2
2022/05/18 00:00:27;;;;;;;;;;;17.60;98.30;;;;;;4751472;30;19936;-82
2022/05/18 00:03:08;;;;;;;;;;;18.70;98.50;;;;;;4790620;30;20048;-87
2022/05/18 00:05:42;;;;;;;;;;;17.60;98.70;;;;;;4786874;30;20033;-83
2022/05/18 00:08:10;;;;;;;;;;;17.50;98.20;;;;;;4800890;30;19930;-86
2022/05/18 00:11:09;;;;;;;;;;;;;;;;;;;;;
2022/05/18 00:14:51;;;;;;;;;;;17.50;98.60;;;;;;4857794;29;19928;-87
2022/05/18 00:22:21;;;;;;;;;;;16.30;99.20;;;;;;4931221;29;19954;-88
2022/05/18 00:25:22;;;;;;;;;;;17.90;99.50;;;;;;4905358;29;20006;-88
2022/05/18 00:32:27;;;;;;;;;;;17.20;99.00;;;;;;4765005;30;19929;-86
2022/05/18 00:35:40;;;;;;;;;;;17.00;99.50;;;;;;4790383;30;19934;-83
2022/05/18 00:38:13;;;;;;;;;;;16.00;99.60;;;;;;4794606;29;19954;-86
2022/05/18 00:41:19;;;;;;;;;;;;;;;;;;;;;
2022/05/18 00:49:30;;;;;;;;;;;;;;;;;;;;;
2022/05/18 00:53:00;;;;;;;;;;;14.90;99.90;;;;;;4753453;30;19942;-87
2022/05/18 00:56:41;;;;;;;;;;;;;;;;;;;;;
2022/05/18 01:00:51;;;;;;;;;;;16.60;99.90;;;;;;4815503;29;19938;-89
2022/05/18 01:03:49;;;;;;;;;;;17.50;99.90;;;;;;4889128;29;19938;-86
2022/05/18 01:08:02;;;;;;;;;;;;;;;;;;;;;
2022/05/18 01:14:57;;;;;;;;;;;16.20;99.90;;;;;;4833979;29;19929;-86
2022/05/18 01:17:29;;;;;;;;;;;16.30;99.90;;;;;;4851291;29;19939;-83
2022/05/18 01:20:18;;;;;;;;;;;16.20;99.90;;;;;;4867048;29;19935;-87
2022/05/18 01:23:13;;;;;;;;;;;16.10;99.90;;;;;;4867116;29;19928;-87
2022/05/18 01:25:54;;;;;;;;;;;14.60;99.60;;;;;;4852489;29;19929;-83
2022/05/18 01:28:24;;;;;;;;;;;16.00;99.90;;;;;;4851668;29;20199;-86
2022/05/18 01:31:36;;;;;;;;;;;15.90;99.90;;;;;;4851399;29;19929;-86
2022/05/18 01:34:07;;;;;;;;;;;15.40;99.90;;;;;;4851224;29;19942;-82
2022/05/18 01:36:56;;;;;;;;;;;15.80;99.90;;;;;;4837888;29;19972;-88
2022/05/18 01:39:28;;;;;;;;;;;15.60;99.90;;;;;;4891164;29;19932;-85
2022/05/18 01:42:05;;;;;;;;;;;16.00;99.90;;;;;;4908793;29;19938;-84
2022/05/18 01:44:44;;;;;;;;;;;15.70;99.90;;;;;;4912171;29;19934;-86
2022/05/18 01:47:51;;;;;;;;;;;;;;;;;;;;;
2022/05/18 01:50:39;;;;;;;;;;;15.60;99.90;;;;;;4894099;29;19928;-89
2022/05/18 01:53:10;;;;;;;;;;;17.10;99.90;;;;;;4892716;29;19938;-86
2022/05/18 01:55:51;;;;;;;;;;;;;;;;;;;;;
2022/05/18 01:59:43;;;;;;;;;;;;;;;;;;;;;
2022/05/18 02:03:33;;;;;;;;;;;;;;;;;;;;;
2022/05/18 02:06:27;;;;;;;;;;;15.60;99.90;;;;;;4925558;29;19927;-87
2022/05/18 02:09:48;;;;;;;;;;;15.30;99.90;;;;;;4922014;29;19927;-84
2022/05/18 02:12:23;;;;;;;;;;;14.10;99.90;;;;;;4926563;29;19933;-85
2022/05/18 02:15:01;;;;;;;;;;;15.60;99.90;;;;;;4910892;29;19922;-85
2022/05/18 02:18:28;;;;;;;;;;;;;;;;;;;;;
2022/05/18 02:21:50;;;;;;;;;;;15.10;99.90;;;;;;4928593;29;19928;-87
2022/05/18 02:24:51;;;;;;;;;;;15.10;99.90;;;;;;4908400;29;19927;-83
2022/05/18 02:27:22;;;;;;;;;;;15.10;99.90;;;;;;4898528;29;19946;-85
2022/05/18 02:30:34;;;;;;;;;;;15.10;99.90;;;;;;4900859;29;19931;-86
2022/05/18 02:34:03;;;;;;;;;;;15.10;99.90;;;;;;4921073;29;19923;-84
2022/05/18 02:37:02;;;;;;;;;;;14.90;99.90;;;;;;4888377;29;19931;-88
2022/05/18 02:43:00;;;;;;;;;;;15.10;99.90;;;;;;4913122;29;20397;-87
2022/05/18 02:46:05;;;;;;;;;;;14.70;99.90;;;;;;4927359;29;19927;-86
2022/05/18 02:48:43;;;;;;;;;;;14.70;99.90;;;;;;4924030;29;19933;-86
2022/05/18 02:51:26;;;;;;;;;;;14.70;99.90;;;;;;4896442;29;19933;-85
2022/05/18 02:53:59;;;;;;;;;;;14.60;99.90;;;;;;4912746;29;19941;-85
2022/05/18 02:57:21;;;;;;;;;;;;;;;;;;;;;
2022/05/18 03:01:08;;;;;;;;;;;14.50;99.90;;;;;;4879201;29;19963;-86
2022/05/18 03:04:41;;;;;;;;;;;;;;;;;;;;;
2022/05/18 03:10:34;;;;;;;;;;;14.40;99.90;;;;;;4877181;29;19928;-85
2022/05/18 03:13:14;;;;;;;;;;;14.70;99.90;;;;;;4894717;29;19939;-88
2022/05/18 03:15:47;;;;;;;;;;;14.40;99.90;;;;;;4879795;29;19928;-88
2022/05/18 03:18:26;;;;;;;;;;;14.20;99.90;;;;;;4894298;29;19934;-85
2022/05/18 03:25:22;;;;;;;;;;;;;;;;;;;;;
2022/05/18 03:29:28;;;;;;;;;;;14.20;99.90;;;;;;4892914;29;19949;-86
2022/05/18 03:32:46;;;;;;;;;;;13.90;99.90;;;;;;4898672;29;19941;-87
2022/05/18 03:36:13;;;;;;;;;;;14.30;99.90;;;;;;4874216;29;19935;-86
2022/05/18 03:39:17;;;;;;;;;;;14.10;99.90;;;;;;4853543;29;19933;-86
2022/05/18 03:42:15;;;;;;;;;;;14.10;99.90;;;;;;4891680;29;19928;-87
2022/05/18 03:46:21;;;;;;;;;;;14.00;99.90;;;;;;4817353;29;19928;-86
2022/05/18 03:49:07;;;;;;;;;;;14.00;99.90;;;;;;4824975;29;19928;-86
2022/05/18 03:53:13;;;;;;;;;;;14.60;99.90;;;;;;4870453;29;19934;-86
2022/05/18 03:56:09;;;;;;;;;;;12.80;99.90;;;;;;4852280;29;19935;-86
2022/05/18 03:58:42;;;;;;;;;;;14.70;99.90;;;;;;4850918;29;20057;-84
2022/05/18 04:01:18;;;;;;;;;;;13.90;99.90;;;;;;4861387;29;20695;-85
2022/05/18 04:04:06;;;;;;;;;;;14.00;99.90;;;;;;4907061;29;19927;-83
2022/05/18 04:06:35;;;;;;;;;;;13.60;99.90;;;;;;4879012;29;19931;-85
2022/05/18 04:09:02;;;;;;;;;;;13.70;99.90;;;;;;4928000;29;19928;-85
2022/05/18 04:11:36;;;;;;;;;;;14.40;99.90;;;;;;4912671;29;20516;-85
2022/05/18 04:19:15;;;;;;;;;;;13.00;99.90;;;;;;4782648;30;19930;-86
2022/05/18 04:26:16;;;;;;;;;;;;;;;;;;;;;
2022/05/18 04:29:17;;;;;;;;;;;13.80;99.90;;;;;;4801788;30;19939;-86
2022/05/18 04:32:17;;;;;;;;;;;13.50;99.90;;;;;;4799263;29;19929;-87
2022/05/18 04:34:52;;;;;;;;;;;13.70;99.90;;;;;;4806515;29;19929;-86
2022/05/18 04:38:04;;;;;;;;;;;13.50;99.90;;;;;;4842265;29;19932;-88
2022/05/18 04:40:34;;;;;;;;;;;13.60;99.90;;;;;;4837800;29;19929;-84
2022/05/18 04:47:25;;;;;;;;;;;13.50;99.90;;;;;;4811724;29;19929;-87
2022/05/18 04:50:08;;;;;;;;;;;;;;;;;;;;;
2022/05/18 04:53:54;;;;;;;;;;;13.30;99.90;;;;;;4822255;29;19933;-87
2022/05/18 04:56:26;;;;;;;;;;;14.70;99.90;;;;;;4906611;29;19930;-84
2022/05/18 04:59:02;;;;;;;;;;;13.50;99.90;;;;;;4927403;29;19938;-88
2022/05/18 05:02:36;;;;;;;;;;;11.70;99.90;;;;;;4880020;29;19942;-85
2022/05/18 05:05:13;;;;;;;;;;;13.60;99.90;;;;;;4861824;29;19952;-83
2022/05/18 05:08:01;;;;;;;;;;;13.70;99.90;;;;;;4845493;29;20135;-86
2022/05/18 05:10:38;;;;;;;;;;;12.50;99.90;;;;;;4876178;29;19928;-86
2022/05/18 05:13:09;;;;;;;;;;;12.50;99.90;;;;;;4869977;29;19927;-85
2022/05/18 05:15:40;;;;;;;;;;;13.60;99.90;;;;;;4913185;29;19932;-84
2022/05/18 05:18:11;;;;;;;;;;;14.00;99.90;;;;;;4888821;29;19928;-86
2022/05/18 05:20:43;;;;;;;;;;;13.90;99.90;;;;;;4889315;29;19939;-83
2022/05/18 05:23:22;;;;;;;;;;;13.70;99.90;;;;;;4873801;29;19932;-85
2022/05/18 05:26:26;;;;;;;;;;;;;;;;;;;;;
2022/05/18 05:29:21;;;;;;;;;;;13.80;99.90;;;;;;4888538;29;19930;-84
2022/05/18 05:35:17;;;;;;;;;;;13.90;99.90;;;;;;4884483;29;19931;-87
2022/05/18 05:38:27;;;;;;;;;;;14.20;99.90;;;;;;4903815;29;19932;-88
2022/05/18 05:41:10;;;;;;;;;;;13.60;99.90;;;;;;4897984;29;19927;-83
2022/05/18 05:43:51;;;;;;;;;;;14.00;99.90;;;;;;4899425;29;19927;-84
2022/05/18 05:46:27;;;;;;;;;;;14.10;99.90;;;;;;4912536;29;19931;-86
2022/05/18 05:49:38;;;;;;;;;;;14.40;99.90;;;;;;4899237;29;19928;-83
2022/05/18 05:55:42;;;;;;;;;;;14.20;99.90;;;;;;4892254;29;19928;-83
2022/05/18 05:58:11;;;;;;;;;;;14.40;99.90;;;;;;4911038;29;19931;-88
2022/05/18 06:01:02;;;;;;;;;;;14.40;99.90;;;;;;4910355;29;19931;-86
2022/05/18 06:03:48;;;;;;;;;;;14.30;99.90;;;;;;4882305;29;19928;-84
2022/05/18 06:06:18;;;;;;;;;;;14.60;99.90;;;;;;4924886;29;19933;-82
2022/05/18 06:08:45;;;;;;;;;;;14.40;99.90;;;;;;4911710;29;20103;-83
2022/05/18 06:11:20;;;;;;;;;;;14.40;99.90;;;;;;4928199;29;19927;-85
2022/05/18 06:13:52;;;;;;;;;;;14.50;99.90;;;;;;4910063;29;19937;-85
2022/05/18 06:16:31;;;;;;;;;;;14.40;99.90;;;;;;4880162;29;19931;-85
2022/05/18 06:19:01;;;;;;;;;;;14.50;99.90;;;;;;4905198;29;19927;-82
2022/05/18 06:21:29;;;;;;;;;;;14.50;99.90;;;;;;4936442;29;19927;-82
2022/05/18 06:23:57;;;;;;;;;;;14.50;99.90;;;;;;4906494;29;19954;-84
2022/05/18 06:26:26;;;;;;;;;;;14.50;99.90;;;;;;4911392;29;19932;-84
2022/05/18 06:28:54;;;;;;;;;;;14.60;99.90;;;;;;4922090;29;19931;-84
2022/05/18 06:31:24;;;;;;;;;;;14.60;99.90;;;;;;4923559;29;19927;-83
2022/05/18 06:34:33;;;;;;;;;;;14.70;99.90;;;;;;4901399;29;19931;-84
2022/05/18 06:37:10;;;;;;;;;;;14.80;99.90;;;;;;4908526;29;19932;-84
2022/05/18 06:39:40;;;;;;;;;;;15.00;99.90;;;;;;4925192;29;19942;-84
2022/05/18 06:42:16;;;;;;;;;;;15.10;99.90;;;;;;4905366;29;20436;-85
2022/05/18 06:44:48;;;;;;;;;;;16.00;99.90;;;;;;4910127;29;20285;-84
2022/05/18 06:47:17;;;;;;;;;;;15.20;99.90;;;;;;4924997;29;19938;-84
2022/05/18 06:49:51;;;;;;;;;;;15.20;99.90;;;;;;4912269;29;19938;-87
2022/05/18 06:52:19;;;;;;;;;;;15.30;99.90;;;;;;4893198;29;19931;-82
2022/05/18 06:54:50;;;;;;;;;;;15.30;99.90;;;;;;4933337;29;19931;-83
2022/05/18 06:57:21;;;;;;;;;;;15.40;99.90;;;;;;4918001;29;19931;-83
2022/05/18 06:59:49;;;;;;;;;;;15.50;99.90;;;;;;4906181;29;19927;-84
2022/05/18 07:02:17;;;;;;;;;;;15.60;99.90;;;;;;4897356;29;19931;-85
2022/05/18 07:04:45;;;;;;;;;;;15.80;99.90;;;;;;4922010;29;19934;-83
2022/05/18 07:07:18;;;;;;;;;;;16.00;99.90;;;;;;4906611;29;19942;-83
2022/05/18 07:09:46;;;;;;;;;;;16.00;99.90;;;;;;4906274;29;19927;-85
2022/05/18 07:12:14;;;;;;;;;;;16.10;99.90;;;;;;4905913;29;19935;-82
2022/05/18 07:14:42;;;;;;;;;;;16.30;99.90;;;;;;4919000;29;19931;-84
2022/05/18 07:17:09;;;;;;;;;;;16.40;99.90;;;;;;4924812;29;19927;-83
2022/05/18 07:19:40;;;;;;;;;;;16.50;99.50;;;;;;4919030;29;19931;-85
2022/05/18 07:22:13;;;;;;;;;;;16.60;99.70;;;;;;4926187;29;20229;-85
2022/05/18 07:24:44;;;;;;;;;;;16.60;99.80;;;;;;4894921;29;19927;-83
2022/05/18 07:27:12;;;;;;;;;;;16.60;99.10;;;;;;4910913;29;19927;-81
2022/05/18 07:29:48;;;;;;;;;;;16.60;99.30;;;;;;4894845;29;19931;-82
2022/05/18 07:32:16;;;;;;;;;;;16.70;98.90;;;;;;4942733;29;19931;-82
2022/05/18 07:34:47;;;;;;;;;;;17.00;99.20;;;;;;4911701;29;19927;-81
2022/05/18 07:37:16;;;;;;;;;;;16.80;99.20;;;;;;4924836;29;19931;-85
2022/05/18 07:39:43;;;;;;;;;;;16.90;98.50;;;;;;4927267;29;19938;-83
2022/05/18 07:42:11;;;;;;;;;;;17.00;98.10;;;;;;4921331;29;20325;-84
2022/05/18 07:44:39;;;;;;;;;;;17.10;98.10;;;;;;4891102;29;19937;-83
2022/05/18 07:47:09;;;;;;;;;;;17.60;98.40;;;;;;4922415;29;19966;-82
2022/05/18 07:49:43;;;;;;;;;;;17.20;97.90;;;;;;4908624;29;20047;-83
2022/05/18 07:52:11;;;;;;;;;;;17.30;98.10;;;;;;4908547;29;20109;-83
2022/05/18 07:54:40;;;;;;;;;;;17.40;97.70;;;;;;4922239;29;19947;-83
2022/05/18 07:57:08;;;;;;;;;;;17.40;97.30;;;;;;4906183;29;19927;-83
2022/05/18 07:59:36;;;;;;;;;;;17.50;96.90;;;;;;4926806;29;20397;-84
2022/05/18 08:02:04;;;;;;;;;;;18.60;97.90;;;;;;4930913;29;20287;-84
2022/05/18 08:04:32;;;;;;;;;;;17.60;96.90;;;;;;4895028;29;19931;-83
2022/05/18 08:06:59;;;;;;;;;;;17.70;97.40;;;;;;4906556;29;19935;-84
2022/05/18 08:09:27;;;;;;;;;;;17.70;97.10;;;;;;4925548;29;19927;-81
2022/05/18 08:17:28;;;;;;;;;;;17.70;96.30;;;;;;4920029;29;19932;-81
2022/05/18 08:19:57;;;;;;;;;;;17.30;96.00;;;;;;4925607;29;19938;-83
2022/05/18 08:22:27;;;;;;;;;;;17.80;96.20;;;;;;4923487;29;20329;-82
2022/05/18 08:24:59;;;;;;;;;;;17.90;96.00;;;;;;4905874;29;19927;-84
2022/05/18 08:27:27;;;;;;;;;;;17.90;95.70;;;;;;4908519;29;19934;-84
2022/05/18 08:30:02;;;;;;;;;;;19.80;96.50;;;;;;4911367;29;19942;-85
2022/05/18 08:32:39;;;;;;;;;;;18.30;95.90;;;;;;4910129;29;19938;-84
2022/05/18 08:35:07;;;;;;;;;;;18.40;95.90;;;;;;4927451;29;20046;-84
2022/05/18 08:37:42;;;;;;;;;;;18.50;95.40;;;;;;4926700;29;19934;-84
2022/05/18 08:40:30;;;;;;;;;;;19.00;95.70;;;;;;4894263;29;19931;-82
2022/05/18 08:42:59;;;;;;;;;;;18.80;95.00;;;;;;4918017;29;19927;-83
2022/05/18 08:45:33;;;;;;;;;;;18.90;94.70;;;;;;4924788;29;19931;-83
2022/05/18 08:48:19;;;;;;;;;;;19.00;94.70;;;;;;4927603;29;19931;-82
2022/05/18 08:50:47;;;;;;;;;;;19.10;94.50;;;;;;4908360;29;19928;-84
2022/05/18 08:53:31;;;;;;;;;;;19.30;94.80;;;;;;4907052;29;19934;-84
2022/05/18 08:56:01;;;;;;;;;;;19.20;93.40;;;;;;4905053;29;20361;-83
2022/05/18 08:58:38;;;;;;;;;;;19.20;94.40;;;;;;4917523;29;19934;-85
2022/05/18 09:01:11;;;;;;;;;;;19.30;94.60;;;;;;4893358;29;20007;-82
2022/05/18 09:03:47;;;;;;;;;;;19.50;94.10;;;;;;4925702;29;19942;-85
2022/05/18 09:06:21;;;;;;;;;;;19.30;94.40;;;;;;4923481;29;19931;-86
2022/05/18 09:10:12;;;;;;;;;;;19.50;93.50;;;;;;4905097;29;19934;-83
2022/05/18 09:11:40;;;;;;;;;;;19.50;92.90;;;;;;4906298;29;19938;-84
2022/05/18 09:14:13;;;;;;;;;;;19.60;92.10;;;;;;4911157;29;19934;-83
2022/05/18 09:16:44;;;;;;;;;;;19.60;92.30;;;;;;4929138;29;19931;-83
2022/05/18 09:19:28;;;;;;;;;;;19.70;91.50;;;;;;4913945;29;19931;-85
2022/05/18 09:22:18;;;;;;;;;;;21.40;92.10;;;;;;4941739;29;19934;-85
2022/05/18 09:25:22;;;;;;;;;;;20.30;90.40;;;;;;4910878;29;19931;-82
2022/05/18 09:28:00;;;;;;;;;;;19.70;90.50;;;;;;4923395;29;19938;-82
2022/05/18 09:30:48;;;;;;;;;;;19.70;91.20;;;;;;4906430;29;19947;-83
2022/05/18 09:33:38;;;;;;;;;;;19.60;90.10;;;;;;4920001;29;20031;-86
2022/05/18 09:36:24;;;;;;;;;;;19.70;89.50;;;;;;4907673;29;19938;-86
2022/05/18 09:38:59;;;;;;;;;;;18.00;89.80;;;;;;4909860;29;19938;-87
2022/05/18 09:41:28;;;;;;;;;;;19.80;90.10;;;;;;4940418;29;19927;-82
2022/05/18 09:44:01;;;;;;;;;;;20.00;90.10;;;;;;4925546;29;19931;-82
2022/05/18 09:46:30;;;;;;;;;;;20.10;89.30;;;;;;4927367;29;19931;-82
2022/05/18 09:49:09;;;;;;;;;;;20.20;89.00;;;;;;4927611;29;19927;-82
2022/05/18 09:51:38;;;;;;;;;;;20.20;88.00;;;;;;4933398;29;19927;-83
2022/05/18 09:54:06;;;;;;;;;;;20.30;87.30;;;;;;4923872;29;19935;-86
2022/05/18 09:56:40;;;;;;;;;;;20.30;87.30;;;;;;4923499;29;19934;-86
2022/05/18 09:59:11;;;;;;;;;;;20.30;85.70;;;;;;4928562;29;19941;-83
2022/05/18 10:07:27;;;;;;;;;;;20.60;87.80;;;;;;4922876;29;19928;-85
2022/05/18 10:10:04;;;;;;;;;;;20.70;88.00;;;;;;4923792;29;19938;-83
2022/05/18 10:13:03;;;;;;;;;;;20.80;87.50;;;;;;4921335;29;19927;-84
2022/05/18 10:16:23;;;;;;;;;;;21.00;84.70;;;;;;4928169;29;19935;-86
2022/05/18 10:18:55;;;;;;;;;;;21.10;85.90;;;;;;4921704;29;19935;-85
2022/05/18 10:21:41;;;;;;;;;;;21.20;84.70;;;;;;4909288;29;19931;-84
2022/05/18 10:24:29;;;;;;;;;;;21.30;86.20;;;;;;4924898;29;20267;-83
2022/05/18 10:27:18;;;;;;;;;;;21.90;87.10;;;;;;4887547;29;19927;-84
2022/05/18 10:29:51;;;;;;;;;;;21.70;84.80;;;;;;4924437;29;19927;-84
2022/05/18 10:32:21;;;;;;;;;;;21.70;85.00;;;;;;4923429;29;19931;-84
2022/05/18 10:34:50;;;;;;;;;;;21.60;85.50;;;;;;4925875;29;19946;-86
2022/05/18 10:37:31;;;;;;;;;;;22.30;84.90;;;;;;4925589;29;19927;-83
2022/05/18 10:39:59;;;;;;;;;;;21.90;83.50;;;;;;4919438;29;19928;-81
2022/05/18 10:42:29;;;;;;;;;;;22.00;84.80;;;;;;4927964;29;19927;-85
2022/05/18 10:44:59;;;;;;;;;;;22.10;83.60;;;;;;4922401;29;19933;-83
2022/05/18 10:47:29;;;;;;;;;;;22.20;83.90;;;;;;4909007;29;20213;-82
2022/05/18 10:50:29;;;;;;;;;;;22.20;83.90;;;;;;4921660;29;19938;-85
2022/05/18 10:53:16;;;;;;;;;;;22.20;84.60;;;;;;4909196;29;19938;-84
2022/05/18 10:56:03;;;;;;;;;;;22.20;84.40;;;;;;4904648;29;19928;-83
2022/05/18 10:58:51;;;;;;;;;;;22.30;85.10;;;;;;4906540;29;19942;-84
2022/05/18 11:01:22;;;;;;;;;;;22.40;85.00;;;;;;4921720;29;19927;-85
2022/05/18 11:03:59;;;;;;;;;;;22.50;84.80;;;;;;4906411;29;19931;-84
2022/05/18 11:06:28;;;;;;;;;;;22.60;84.00;;;;;;4906995;29;19931;-84
2022/05/18 11:08:58;;;;;;;;;;;22.70;83.20;;;;;;4921045;29;20096;-85
2022/05/18 11:11:26;;;;;;;;;;;22.90;83.80;;;;;;4916885;29;20373;-84
2022/05/18 11:14:06;;;;;;;;;;;23.10;82.40;;;;;;4917581;29;19942;-85
2022/05/18 11:17:01;;;;;;;;;;;23.20;81.40;;;;;;4912650;29;19928;-84
2022/05/18 11:19:40;;;;;;;;;;;23.40;81.90;;;;;;4915965;29;19935;-84
2022/05/18 11:22:17;;;;;;;;;;;23.50;80.90;;;;;;4905975;29;19953;-86
2022/05/18 11:24:49;;;;;;;;;;;23.50;79.90;;;;;;4940815;29;19931;-86
2022/05/18 11:27:50;;;;;;;;;;;23.50;78.70;;;;;;4935567;29;19927;-86
2022/05/18 11:30:22;;;;;;;;;;;23.60;79.10;;;;;;4919527;29;19931;-84
2022/05/18 11:32:53;;;;;;;;;;;23.60;79.30;;;;;;4921267;29;19932;-84
2022/05/18 11:35:35;;;;;;;;;;;23.50;78.70;;;;;;4898377;29;20338;-85
2022/05/18 11:38:22;;;;;;;;;;;23.50;79.00;;;;;;4905028;29;19935;-86
2022/05/18 11:41:08;;;;;;;;;;;23.50;79.20;;;;;;4908946;29;20306;-84
2022/05/18 11:43:36;;;;;;;;;;;23.60;79.40;;;;;;4918452;29;19942;-87
2022/05/18 11:46:24;;;;;;;;;;;23.70;79.80;;;;;;4928330;29;19931;-84
2022/05/18 11:49:05;;;;;;;;;;;23.70;79.10;;;;;;4938149;29;19927;-86
2022/05/18 11:52:00;;;;;;;;;;;23.80;80.00;;;;;;4941742;29;20045;-85
2022/05/18 11:54:42;;;;;;;;;;;24.10;78.60;;;;;;4911146;29;19931;-87
2022/05/18 11:57:19;;;;;;;;;;;24.10;78.80;;;;;;4914773;29;19945;-85
2022/05/18 12:00:01;;;;;;;;;;;24.30;76.80;;;;;;4913663;29;19928;-84
2022/05/18 12:02:32;;;;;;;;;;;24.40;75.50;;;;;;4928908;29;20290;-86
2022/05/18 12:05:30;;;;;;;;;;;24.40;74.90;;;;;;4929185;29;19937;-85
2022/05/18 12:08:09;;;;;;;;;;;24.60;75.70;;;;;;4842263;29;19939;-86
2022/05/18 12:10:44;;;;;;;;;;;24.30;74.30;;;;;;4924505;29;19937;-85
2022/05/18 12:13:29;;;;;;;;;;;24.70;72.90;;;;;;4895685;29;19931;-85
2022/05/18 12:15:57;;;;;;;;;;;24.80;74.40;;;;;;4903241;29;19928;-86
2022/05/18 12:18:30;;;;;;;;;;;24.80;73.90;;;;;;4945285;29;19950;-84
2022/05/18 12:21:11;;;;;;;;;;;24.80;74.80;;;;;;4932402;29;19934;-85
2022/05/18 12:23:41;;;;;;;;;;;25.10;75.20;;;;;;4915215;29;19946;-84
2022/05/18 12:26:10;;;;;;;;;;;24.90;74.00;;;;;;4910048;29;19950;-84
2022/05/18 12:28:39;;;;;;;;;;;24.90;72.60;;;;;;4892985;29;20116;-85
2022/05/18 12:31:06;;;;;;;;;;;25.40;71.60;;;;;;4931636;29;19931;-85
2022/05/18 12:33:42;;;;;;;;;;;25.50;72.90;;;;;;4907087;29;19927;-84
2022/05/18 12:36:23;;;;;;;;;;;25.70;70.60;;;;;;4912112;29;19927;-86
2022/05/18 12:38:51;;;;;;;;;;;25.70;70.20;;;;;;4892811;29;20373;-86
2022/05/18 12:41:24;;;;;;;;;;;25.70;70.70;;;;;;4911554;29;19926;-84
2022/05/18 12:44:02;;;;;;;;;;;25.70;69.60;;;;;;4905217;29;19928;-83
2022/05/18 12:46:42;;;;;;;;;;;25.70;68.40;;;;;;4883127;29;20456;-84
2022/05/18 12:49:19;;;;;;;;;;;25.60;69.30;;;;;;4918784;29;20396;-85
2022/05/18 12:51:54;;;;;;;;;;;25.50;71.60;;;;;;4940938;29;19927;-83
2022/05/18 12:54:30;;;;;;;;;;;25.60;69.70;;;;;;4906907;29;19943;-85
2022/05/18 12:57:07;;;;;;;;;;;25.80;69.50;;;;;;4921601;29;19933;-83
2022/05/18 12:59:49;;;;;;;;;;;25.70;69.50;;;;;;4926356;29;19931;-81
2022/05/18 13:02:36;;;;;;;;;;;25.20;69.50;;;;;;4908637;29;19928;-84
2022/05/18 13:05:08;;;;;;;;;;;25.60;68.60;;;;;;4909123;29;19933;-83
2022/05/18 13:07:38;;;;;;;;;;;25.70;69.10;;;;;;4900569;29;19935;-83
2022/05/18 13:10:16;;;;;;;;;;;25.70;68.20;;;;;;4896408;29;19930;-83
2022/05/18 13:12:45;;;;;;;;;;;25.60;68.40;;;;;;4928459;29;19937;-83
2022/05/18 13:15:19;;;;;;;;;;;25.70;68.50;;;;;;4927038;29;19927;-85
2022/05/18 13:18:02;;;;;;;;;;;25.00;68.40;;;;;;4941849;29;19930;-83
2022/05/18 13:20:48;;;;;;;;;;;26.10;69.20;;;;;;4901806;29;19932;-83
2022/05/18 13:23:19;;;;;;;;;;;26.20;67.50;;;;;;4927093;29;19931;-81
2022/05/18 13:25:50;;;;;;;;;;;26.50;67.50;;;;;;4907070;29;19931;-84
2022/05/18 13:28:18;;;;;;;;;;;26.80;67.10;;;;;;4933872;29;20313;-84
2022/05/18 13:30:51;;;;;;;;;;;26.90;67.40;;;;;;4891794;29;19928;-87
2022/05/18 13:33:42;;;;;;;;;;;27.20;66.80;;;;;;4917528;29;19946;-82
2022/05/18 13:36:10;;;;;;;;;;;27.10;67.50;;;;;;4941272;29;19927;-84
2022/05/18 13:38:40;;;;;;;;;;;27.50;68.20;;;;;;4940894;29;19927;-85
2022/05/18 13:41:10;;;;;;;;;;;27.70;66.70;;;;;;4909280;29;19927;-83
2022/05/18 13:43:40;;;;;;;;;;;27.70;64.10;;;;;;4911303;29;19977;-84
2022/05/18 13:46:26;;;;;;;;;;;27.80;65.30;;;;;;4919563;29;19927;-84
2022/05/18 13:48:58;;;;;;;;;;;28.00;64.80;;;;;;4929009;29;19931;-87
2022/05/18 13:51:30;;;;;;;;;;;29.40;65.50;;;;;;4881965;29;20689;-83
2022/05/18 13:54:05;;;;;;;;;;;28.40;63.90;;;;;;4941039;29;19934;-92
2022/05/18 13:56:35;;;;;;;;;;;28.50;60.70;;;;;;4906330;29;19937;-86
2022/05/18 13:59:06;;;;;;;;;;;28.40;63.10;;;;;;4938896;29;20545;-83
2022/05/18 14:01:40;;;;;;;;;;;28.50;63.20;;;;;;4926537;29;19935;-90
2022/05/18 14:04:12;;;;;;;;;;;28.50;62.90;;;;;;4908769;29;19934;-83
2022/05/18 14:06:47;;;;;;;;;;;28.60;63.20;;;;;;4903477;29;20727;-85
2022/05/18 14:09:21;;;;;;;;;;;28.60;64.10;;;;;;4908033;29;19931;-84
2022/05/18 14:12:01;;;;;;;;;;;28.60;63.30;;;;;;4902155;29;19952;-86
2022/05/18 14:14:52;;;;;;;;;;;28.70;61.80;;;;;;4905716;29;19938;-87
2022/05/18 14:17:23;;;;;;;;;;;28.80;62.90;;;;;;4903604;29;20561;-87
2022/05/18 14:19:53;;;;;;;;;;;28.90;62.40;;;;;;4887783;29;20315;-84
2022/05/18 14:22:24;;;;;;;;;;;29.00;62.30;;;;;;4928531;29;19938;-85
2022/05/18 14:24:57;;;;;;;;;;;29.00;61.60;;;;;;4935192;29;19931;-85
2022/05/18 14:27:28;;;;;;;;;;;29.20;62.60;;;;;;4918159;29;19927;-83
2022/05/18 14:30:01;;;;;;;;;;;29.30;61.50;;;;;;4905430;29;19942;-83
2022/05/18 14:32:57;;;;;;;;;;;29.40;60.70;;;;;;4904248;29;19935;-85
2022/05/18 14:35:49;;;;;;;;;;;29.60;59.90;;;;;;4901369;29;19931;-84
2022/05/18 14:38:25;;;;;;;;;;;29.40;60.20;;;;;;4940974;29;19941;-84
2022/05/18 14:41:07;;;;;;;;;;;29.60;60.30;;;;;;4925656;29;19927;-86
2022/05/18 14:43:36;;;;;;;;;;;28.80;60.50;;;;;;4924630;29;19937;-82
2022/05/18 14:46:11;;;;;;;;;;;30.00;57.30;;;;;;4908860;29;19945;-83
2022/05/18 14:48:47;;;;;;;;;;;30.10;57.30;;;;;;4924035;29;20004;-84
2022/05/18 14:51:28;;;;;;;;;;;28.90;57.20;;;;;;4938282;29;19927;-86
2022/05/18 14:53:58;;;;;;;;;;;30.00;56.10;;;;;;4907336;29;19931;-85
2022/05/18 14:56:57;;;;;;;;;;;30.10;56.40;;;;;;4905848;29;20466;-83
2022/05/18 14:59:25;;;;;;;;;;;30.30;56.40;;;;;;4920532;29;19946;-86
2022/05/18 15:02:00;;;;;;;;;;;30.50;57.30;;;;;;4901839;29;19935;-85
2022/05/18 15:04:29;;;;;;;;;;;30.60;54.50;;;;;;4921304;29;19931;-84
2022/05/18 15:07:43;;;;;;;;;;;30.80;56.00;;;;;;4899186;29;19927;-85
2022/05/18 15:10:20;;;;;;;;;;;30.60;54.70;;;;;;4907538;29;19938;-85
2022/05/18 15:12:57;;;;;;;;;;;30.70;55.30;;;;;;4908443;29;19937;-85
2022/05/18 15:15:30;;;;;;;;;;;30.90;55.00;;;;;;4891015;29;19946;-85
2022/05/18 15:18:13;;;;;;;;;;;30.80;54.00;;;;;;4938728;29;19927;-84
2022/05/18 15:20:44;;;;;;;;;;;31.00;52.60;;;;;;4907232;29;19927;-84
2022/05/18 15:23:19;;;;;;;;;;;31.00;53.10;;;;;;4908945;29;19942;-85
2022/05/18 15:25:55;;;;;;;;;;;31.20;52.80;;;;;;4939411;29;19935;-84
2022/05/18 15:28:37;;;;;;;;;;;31.50;52.60;;;;;;4907458;29;19927;-84
2022/05/18 15:31:13;;;;;;;;;;;31.60;52.00;;;;;;4905671;29;19951;-84
2022/05/18 15:33:52;;;;;;;;;;;32.10;52.80;;;;;;4906648;29;20311;-85
2022/05/18 15:36:21;;;;;;;;;;;32.20;52.50;;;;;;4923182;29;19938;-84
2022/05/18 15:38:50;;;;;;;;;;;32.40;52.20;;;;;;4923607;29;19938;-84
2022/05/18 15:41:30;;;;;;;;;;;32.80;51.90;;;;;;4921698;29;19942;-86
2022/05/18 15:44:03;;;;;;;;;;;31.60;50.40;;;;;;4922952;29;19933;-85
2022/05/18 15:46:36;;;;;;;;;;;33.00;50.20;;;;;;4907576;29;19927;-84
2022/05/18 15:49:04;;;;;;;;;;;33.00;49.80;;;;;;4919976;29;19924;-87
2022/05/18 15:51:32;;;;;;;;;;;33.10;49.10;;;;;;4904258;29;19931;-85
2022/05/18 15:54:01;;;;;;;;;;;33.20;49.80;;;;;;4903988;29;20298;-84
2022/05/18 15:56:29;;;;;;;;;;;33.40;49.10;;;;;;4889356;29;19928;-89
2022/05/18 15:59:08;;;;;;;;;;;32.90;50.00;;;;;;4905565;29;19934;-85
2022/05/18 16:02:01;;;;;;;;;;;33.50;51.00;;;;;;4903052;29;19961;-86
2022/05/18 16:04:30;;;;;;;;;;;33.60;52.40;;;;;;4900239;29;19932;-88
2022/05/18 16:07:13;;;;;;;;;;;33.10;50.50;;;;;;4906814;29;19927;-87
2022/05/18 16:09:58;;;;;;;;;;;33.00;51.40;;;;;;4919275;29;19942;-87
2022/05/18 16:12:34;;;;;;;;;;;32.90;50.50;;;;;;4917926;29;19934;-88
2022/05/18 16:15:14;;;;;;;;;;;32.80;50.80;;;;;;4891476;29;19927;-88
2022/05/18 16:17:49;;;;;;;;;;;32.80;51.20;;;;;;4903894;29;19935;-89
2022/05/18 16:20:26;;;;;;;;;;;32.60;50.80;;;;;;4920673;29;19943;-86
2022/05/18 16:23:19;;;;;;;;;;;31.90;50.70;;;;;;4929412;29;19935;-86
2022/05/18 16:25:49;;;;;;;;;;;32.00;51.40;;;;;;4922894;29;19935;-88
2022/05/18 16:28:20;;;;;;;;;;;31.80;50.90;;;;;;4923191;29;19943;-84
2022/05/18 16:31:05;;;;;;;;;;;31.40;51.40;;;;;;4910430;29;19934;-86
2022/05/18 16:33:50;;;;;;;;;;;31.10;51.60;;;;;;4891893;29;19927;-84
2022/05/18 16:36:33;;;;;;;;;;;30.20;51.30;;;;;;4923724;29;19931;-87
2022/05/18 16:39:08;;;;;;;;;;;30.40;50.90;;;;;;4921925;29;19928;-85
2022/05/18 16:41:59;;;;;;;;;;;30.10;49.90;;;;;;4911926;29;19995;-87
2022/05/18 16:44:35;;;;;;;;;;;29.80;48.80;;;;;;4924116;29;20365;-86
2022/05/18 16:47:03;;;;;;;;;;;29.00;49.60;;;;;;4908559;29;19935;-84
2022/05/18 16:49:36;;;;;;;;;;;29.20;47.50;;;;;;4893114;29;19941;-84
2022/05/18 16:52:37;;;;;;;;;;;29.00;48.80;;;;;;4884672;29;19936;-88
2022/05/18 16:55:20;;;;;;;;;;;28.80;48.90;;;;;;4873602;29;19939;-88
2022/05/18 16:58:06;;;;;;;;;;;28.50;49.40;;;;;;4873632;29;19936;-86
2022/05/18 17:00:42;;;;;;;;;;;28.50;48.50;;;;;;4899305;29;19938;-87